createdAt,value
2022-08-25T00:00:33.764Z,62.20
2022-08-25T00:03:04.850Z,61.40
2022-08-25T00:05:35.238Z,61.40
2022-08-25T00:08:08.118Z,61.70
2022-08-25T00:10:40.786Z,61.70
2022-08-25T00:13:11.800Z,62.30
2022-08-25T00:15:42.244Z,62.40
2022-08-25T00:18:19.816Z,62.40
2022-08-25T00:20:50.984Z,62.40
2022-08-25T00:23:21.966Z,62.30
2022-08-25T00:25:52.617Z,62.60
2022-08-25T00:28:22.925Z,62.60
2022-08-25T00:30:54.183Z,62.70
2022-08-25T00:33:24.752Z,62.60
2022-08-25T00:35:58.036Z,62.40
2022-08-25T00:38:32.007Z,62.50
2022-08-25T00:41:08.527Z,62.10
2022-08-25T00:43:44.788Z,62.40
2022-08-25T00:46:19.736Z,62.60
2022-08-25T00:48:54.866Z,62.60
2022-08-25T00:51:49.811Z,62.50
2022-08-25T00:54:29.020Z,62.20
2022-08-25T00:57:01.478Z,62.30
2022-08-25T00:59:32.385Z,62.30
2022-08-25T01:02:02.989Z,62.00
2022-08-25T01:04:33.889Z,62.10
2022-08-25T01:07:04.682Z,62.00
2022-08-25T01:09:37.470Z,62.00
2022-08-25T01:12:07.953Z,62.10
2022-08-25T01:14:39.365Z,62.00
2022-08-25T01:17:09.618Z,62.10
2022-08-25T01:19:40.057Z,62.10
2022-08-25T01:22:12.474Z,61.80
2022-08-25T01:25:15.134Z,62.10
2022-08-25T01:27:45.449Z,62.00
2022-08-25T01:30:16.446Z,61.90
2022-08-25T01:32:46.818Z,62.10
2022-08-25T01:35:17.061Z,61.80
2022-08-25T01:37:47.618Z,62.10
2022-08-25T01:40:18.204Z,62.00
2022-08-25T01:43:09.542Z,62.00
2022-08-25T01:45:41.510Z,61.90
2022-08-25T01:48:13.754Z,61.80
2022-08-25T01:50:45.862Z,62.10
2022-08-25T01:53:28.638Z,61.90
2022-08-25T01:56:03.968Z,62.10
2022-08-25T01:58:36.981Z,61.90
2022-08-25T02:01:11.138Z,61.80
2022-08-25T02:03:43.949Z,61.90
2022-08-25T02:06:28.826Z,61.70
2022-08-25T02:09:03.519Z,62.00
2022-08-25T02:11:35.561Z,61.90
2022-08-25T02:14:06.397Z,61.90
2022-08-25T02:16:39.527Z,61.80
2022-08-25T02:19:13.542Z,61.50
2022-08-25T02:21:44.354Z,61.60
2022-08-25T02:24:15.183Z,61.50
2022-08-25T02:26:46.049Z,61.50
2022-08-25T02:29:18.508Z,61.50
2022-08-25T02:31:49.007Z,61.40
2022-08-25T02:34:19.417Z,62.30
2022-08-25T02:36:49.805Z,61.30
2022-08-25T02:39:20.086Z,61.50
2022-08-25T02:41:50.334Z,61.40
2022-08-25T02:44:20.569Z,61.50
2022-08-25T02:46:50.845Z,61.60
2022-08-25T02:49:21.094Z,61.50
2022-08-25T02:51:51.324Z,61.70
2022-08-25T02:54:21.566Z,61.60
2022-08-25T02:56:55.613Z,61.60
2022-08-25T02:59:25.803Z,61.70
2022-08-25T03:01:56.138Z,61.50
2022-08-25T03:04:26.662Z,61.80
2022-08-25T03:06:57.278Z,61.50
2022-08-25T03:09:28.588Z,61.80
2022-08-25T03:11:58.868Z,61.80
2022-08-25T03:14:29.029Z,61.70
2022-08-25T03:16:59.815Z,61.80
2022-08-25T03:19:30.077Z,61.70
2022-08-25T03:22:01.122Z,61.70
2022-08-25T03:24:31.662Z,61.60
2022-08-25T03:27:02.129Z,61.70
2022-08-25T03:29:35.557Z,61.60
2022-08-25T03:32:06.894Z,61.50
2022-08-25T03:34:37.335Z,61.80
2022-08-25T03:37:10.215Z,61.80
2022-08-25T03:39:40.394Z,61.70
2022-08-25T03:42:10.697Z,61.80
2022-08-25T03:44:40.857Z,61.70
2022-08-25T03:47:11.030Z,61.80
2022-08-25T03:49:41.309Z,61.80
2022-08-25T03:52:11.483Z,61.70
2022-08-25T03:54:41.621Z,61.90
2022-08-25T03:57:11.775Z,61.70
2022-08-25T03:59:42.162Z,61.80
2022-08-25T04:02:12.374Z,61.80
2022-08-25T04:04:42.692Z,61.80
2022-08-25T04:07:13.390Z,61.70
2022-08-25T04:09:43.564Z,61.90
2022-08-25T04:12:13.788Z,61.80
2022-08-25T04:14:44.411Z,61.40
2022-08-25T04:17:14.605Z,61.40
2022-08-25T04:19:44.819Z,61.30
2022-08-25T04:22:15.054Z,61.30
2022-08-25T04:24:45.323Z,61.40
2022-08-25T04:27:15.556Z,61.30
2022-08-25T04:29:45.911Z,61.50
2022-08-25T04:32:16.092Z,61.30
2022-08-25T04:34:47.629Z,61.60
2022-08-25T04:37:18.576Z,61.50
2022-08-25T04:39:48.944Z,61.40
2022-08-25T04:42:19.203Z,61.50
2022-08-25T04:44:49.413Z,61.40
2022-08-25T04:47:19.669Z,61.30
2022-08-25T04:49:49.835Z,61.20
2022-08-25T04:52:20.025Z,61.10
2022-08-25T04:54:50.455Z,61.10
2022-08-25T04:57:20.687Z,61.10
2022-08-25T04:59:50.971Z,61.20
2022-08-25T05:02:21.484Z,61.40
2022-08-25T05:04:51.816Z,61.60
2022-08-25T05:07:22.073Z,61.60
2022-08-25T05:09:52.264Z,61.50
2022-08-25T05:12:22.504Z,61.60
2022-08-25T05:14:55.695Z,61.60
2022-08-25T05:17:25.917Z,61.60
2022-08-25T05:19:56.083Z,61.60
2022-08-25T05:22:26.262Z,61.60
2022-08-25T05:24:56.472Z,61.60
2022-08-25T05:27:26.691Z,61.60
2022-08-25T05:29:56.917Z,61.50
2022-08-25T05:32:27.260Z,61.40
2022-08-25T05:34:57.434Z,61.50
2022-08-25T05:37:41.750Z,61.40
2022-08-25T05:40:12.494Z,61.50
2022-08-25T05:42:43.297Z,61.70
2022-08-25T05:45:16.680Z,61.70
2022-08-25T05:47:51.488Z,61.60
2022-08-25T05:50:23.134Z,61.70
2022-08-25T05:52:53.372Z,61.70
2022-08-25T05:55:23.572Z,61.70
2022-08-25T05:57:53.772Z,61.50
2022-08-25T06:00:24.155Z,61.50
2022-08-25T06:02:55.210Z,61.60
2022-08-25T06:05:26.317Z,61.50
2022-08-25T06:07:56.494Z,61.40
2022-08-25T06:10:27.090Z,61.50
2022-08-25T06:12:58.200Z,61.50
2022-08-25T06:15:29.651Z,61.50
2022-08-25T06:18:04.335Z,61.40
2022-08-25T06:20:34.734Z,61.40
2022-08-25T06:23:04.912Z,61.50
2022-08-25T06:25:35.798Z,61.40
2022-08-25T06:28:06.602Z,61.40
2022-08-25T06:30:37.379Z,61.40
2022-08-25T06:33:07.763Z,61.30
2022-08-25T06:35:38.882Z,61.30
2022-08-25T06:38:09.454Z,61.30
2022-08-25T06:40:40.240Z,61.30
2022-08-25T06:43:10.619Z,61.30
2022-08-25T06:45:41.942Z,61.30
2022-08-25T06:48:15.163Z,61.20
2022-08-25T06:50:46.430Z,61.20
2022-08-25T06:53:16.862Z,61.40
2022-08-25T06:55:47.117Z,61.30
2022-08-25T06:58:17.321Z,61.50
2022-08-25T07:00:47.616Z,61.40
2022-08-25T07:03:17.878Z,61.50
2022-08-25T07:05:56.098Z,62.20
2022-08-25T07:08:32.407Z,61.30
2022-08-25T07:11:16.385Z,61.40
2022-08-25T07:13:49.337Z,61.30
2022-08-25T07:16:22.280Z,61.40
2022-08-25T07:18:58.036Z,61.30
2022-08-25T07:21:35.550Z,61.40
2022-08-25T07:24:12.685Z,61.40
2022-08-25T07:26:45.573Z,61.20
2022-08-25T07:29:31.712Z,61.20
2022-08-25T07:32:03.869Z,61.30
2022-08-25T07:34:52.871Z,61.30
2022-08-25T07:37:48.901Z,61.30
2022-08-25T07:40:24.874Z,61.20
2022-08-25T07:42:58.010Z,61.20
2022-08-25T07:45:32.861Z,61.20
2022-08-25T07:48:13.331Z,61.00
2022-08-25T07:50:49.692Z,60.90
2022-08-25T07:53:22.010Z,60.70
2022-08-25T07:55:53.572Z,60.70
2022-08-25T07:58:24.087Z,60.70
2022-08-25T08:00:54.978Z,60.70
2022-08-25T08:03:44.687Z,60.70
2022-08-25T08:06:19.087Z,60.70
2022-08-25T08:08:54.700Z,60.90
2022-08-25T08:11:29.771Z,60.90
2022-08-25T08:14:01.502Z,60.90
2022-08-25T08:16:33.232Z,60.90
2022-08-25T08:19:04.731Z,60.90
2022-08-25T08:21:38.734Z,60.90
2022-08-25T08:24:24.918Z,60.90
2022-08-25T08:27:01.140Z,60.90
2022-08-25T08:29:31.708Z,60.80
2022-08-25T08:32:02.589Z,60.80
2022-08-25T08:34:36.845Z,60.70
2022-08-25T08:37:10.636Z,60.60
2022-08-25T08:39:41.603Z,60.50
2022-08-25T08:42:21.008Z,60.50
2022-08-25T08:45:09.853Z,60.50
2022-08-25T08:47:54.678Z,60.10
2022-08-25T08:50:37.627Z,60.30
2022-08-25T08:53:34.071Z,60.10
2022-08-25T08:56:11.700Z,59.20
2022-08-25T08:59:15.584Z,59.40
2022-08-25T09:01:53.213Z,59.50
2022-08-25T09:04:35.050Z,59.70
2022-08-25T09:07:12.583Z,59.60
2022-08-25T09:09:45.339Z,59.70
2022-08-25T09:12:33.506Z,59.80
2022-08-25T09:15:24.733Z,59.60
2022-08-25T09:18:08.371Z,59.60
2022-08-25T09:20:54.742Z,59.60
2022-08-25T09:23:47.053Z,59.70
2022-08-25T09:26:38.249Z,59.50
2022-08-25T09:29:27.875Z,59.70
2022-08-25T09:32:03.036Z,59.70
2022-08-25T09:34:37.565Z,59.70
2022-08-25T09:37:08.684Z,59.70
2022-08-25T09:39:39.045Z,59.80
2022-08-25T09:42:09.570Z,59.80
2022-08-25T09:44:43.083Z,59.80
2022-08-25T09:47:22.413Z,59.80
2022-08-25T09:49:59.122Z,59.80
2022-08-25T09:52:34.861Z,59.80
2022-08-25T09:55:07.981Z,59.80
2022-08-25T09:57:39.697Z,59.90
2022-08-25T10:00:21.949Z,59.80
2022-08-25T10:03:25.627Z,59.90
2022-08-25T10:06:01.679Z,59.90
2022-08-25T10:09:00.997Z,60.00
2022-08-25T10:11:46.122Z,59.90
2022-08-25T10:14:27.310Z,60.00
2022-08-25T10:17:33.580Z,60.00
2022-08-25T10:20:12.789Z,60.00
2022-08-25T10:22:53.503Z,60.10
2022-08-25T10:25:34.629Z,60.10
2022-08-25T10:28:07.928Z,60.00
2022-08-25T10:31:01.615Z,60.10
2022-08-25T10:33:58.686Z,60.00
2022-08-25T10:37:09.755Z,60.10
2022-08-25T10:39:43.005Z,60.10
2022-08-25T10:42:13.218Z,60.20
2022-08-25T10:45:28.294Z,60.10
2022-08-25T10:48:21.091Z,60.10
2022-08-25T10:51:20.531Z,60.20
2022-08-25T10:54:12.150Z,60.10
2022-08-25T10:56:46.261Z,60.20
2022-08-25T10:59:42.363Z,60.20
2022-08-25T11:02:35.156Z,60.10
2022-08-25T11:05:49.632Z,60.20
2022-08-25T11:08:40.558Z,60.10
2022-08-25T11:11:35.005Z,60.20
2022-08-25T11:14:14.373Z,60.10
2022-08-25T11:17:03.627Z,60.10
2022-08-25T11:19:47.633Z,60.10
2022-08-25T11:22:44.839Z,60.00
2022-08-25T11:25:39.656Z,59.90
2022-08-25T11:28:12.678Z,60.00
2022-08-25T11:30:43.620Z,60.00
2022-08-25T11:33:21.896Z,59.90
2022-08-25T11:36:07.847Z,60.60
2022-08-25T11:38:42.397Z,59.90
2022-08-25T11:41:33.883Z,59.90
2022-08-25T11:44:29.603Z,59.90
2022-08-25T11:47:02.783Z,59.80
2022-08-25T11:49:53.974Z,59.90
2022-08-25T11:52:36.274Z,59.80
2022-08-25T11:55:23.074Z,59.80
2022-08-25T11:58:15.844Z,59.80
2022-08-25T12:00:51.054Z,59.80
2022-08-25T12:03:37.755Z,59.80
2022-08-25T12:06:23.322Z,59.60
2022-08-25T12:09:05.581Z,59.70
2022-08-25T12:11:42.313Z,59.70
2022-08-25T12:14:24.183Z,59.70
2022-08-25T12:16:57.133Z,59.70
2022-08-25T12:19:37.995Z,59.70
2022-08-25T12:22:08.672Z,59.70
2022-08-25T12:24:52.728Z,59.70
2022-08-25T12:27:54.980Z,59.60
2022-08-25T12:30:45.400Z,59.70
2022-08-25T12:33:18.709Z,59.60
2022-08-25T12:36:03.905Z,59.60
2022-08-25T12:38:46.305Z,59.60
2022-08-25T12:41:24.249Z,59.60
2022-08-25T12:44:11.040Z,59.60
2022-08-25T12:46:46.544Z,59.60
2022-08-25T12:49:36.298Z,59.60
2022-08-25T12:52:19.168Z,59.60
2022-08-25T12:55:04.710Z,59.60
2022-08-25T12:57:41.245Z,59.60
2022-08-25T13:00:19.036Z,59.60
2022-08-25T13:03:22.921Z,59.70
2022-08-25T13:06:19.002Z,59.60
2022-08-25T13:09:39.066Z,59.60
2022-08-25T13:12:24.464Z,59.70
2022-08-25T13:14:59.694Z,59.80
2022-08-25T13:17:37.149Z,59.80
2022-08-25T13:20:31.190Z,60.50
2022-08-25T13:23:04.132Z,59.80
2022-08-25T13:25:34.996Z,59.90
2022-08-25T13:28:11.207Z,59.80
2022-08-25T13:30:41.704Z,59.80
2022-08-25T13:33:28.578Z,60.60
2022-08-25T13:36:19.113Z,59.80
2022-08-25T13:38:51.057Z,59.90
2022-08-25T13:41:29.310Z,60.00
2022-08-25T13:44:02.530Z,60.00
2022-08-25T13:46:35.382Z,60.00
2022-08-25T13:49:09.544Z,60.00
2022-08-25T13:51:43.652Z,60.10
2022-08-25T13:54:29.419Z,60.10
2022-08-25T13:57:20.291Z,60.10
2022-08-25T13:59:55.824Z,60.20
2022-08-25T14:02:49.771Z,60.20
2022-08-25T14:05:42.974Z,60.20
2022-08-25T14:08:36.812Z,60.30
2022-08-25T14:11:16.270Z,60.40
2022-08-25T14:13:47.693Z,60.50
2022-08-25T14:16:25.728Z,60.50
2022-08-25T14:18:59.972Z,60.50
2022-08-25T14:21:34.553Z,60.60
2022-08-25T14:24:05.199Z,60.60
2022-08-25T14:26:35.457Z,60.60
2022-08-25T14:29:08.241Z,60.70
2022-08-25T14:31:44.243Z,60.80
2022-08-25T14:34:41.823Z,60.80
2022-08-25T14:37:25.644Z,60.90
2022-08-25T14:39:56.352Z,60.90
2022-08-25T14:42:27.906Z,60.90
2022-08-25T14:44:58.600Z,61.00
2022-08-25T14:47:30.561Z,61.00
2022-08-25T14:50:01.792Z,61.00
2022-08-25T14:52:33.183Z,61.00
2022-08-25T14:55:04.350Z,61.00
2022-08-25T14:57:34.593Z,61.00
2022-08-25T15:00:06.619Z,60.90
2022-08-25T15:02:43.366Z,60.70
2022-08-25T15:05:22.929Z,60.60
2022-08-25T15:08:13.113Z,60.60
2022-08-25T15:10:44.208Z,60.50
2022-08-25T15:13:15.791Z,60.50
2022-08-25T15:15:52.403Z,60.30
2022-08-25T15:18:24.547Z,60.20
2022-08-25T15:20:55.138Z,60.20
2022-08-25T15:23:27.635Z,60.10
2022-08-25T15:25:59.293Z,60.00
2022-08-25T15:28:29.734Z,59.90
2022-08-25T15:31:01.686Z,59.90
2022-08-25T15:33:32.131Z,59.90
2022-08-25T15:36:03.252Z,59.80
2022-08-25T15:38:33.668Z,59.80
2022-08-25T15:41:04.457Z,59.80
2022-08-25T15:43:35.552Z,59.70
2022-08-25T15:46:08.641Z,59.60
2022-08-25T15:48:39.365Z,59.70
2022-08-25T15:51:10.423Z,59.60
2022-08-25T15:53:41.025Z,59.50
2022-08-25T15:56:15.946Z,60.10
2022-08-25T15:58:57.322Z,59.50
2022-08-25T16:01:30.546Z,59.50
2022-08-25T16:04:01.240Z,59.50
2022-08-25T16:06:31.656Z,59.40
2022-08-25T16:09:02.448Z,59.50
2022-08-25T16:11:38.540Z,59.40
2022-08-25T16:14:08.986Z,59.30
2022-08-25T16:16:39.816Z,59.30
2022-08-25T16:19:10.908Z,59.30
2022-08-25T16:21:47.484Z,59.30
2022-08-25T16:24:19.237Z,59.30
2022-08-25T16:26:49.687Z,59.30
2022-08-25T16:29:20.783Z,59.30
2022-08-25T16:31:53.448Z,59.30
2022-08-25T16:34:28.662Z,59.30
2022-08-25T16:37:01.501Z,59.20
2022-08-25T16:39:32.013Z,59.30
2022-08-25T16:42:02.529Z,59.10
2022-08-25T16:44:32.687Z,59.20
2022-08-25T16:47:03.271Z,59.20
2022-08-25T16:49:33.628Z,59.10
2022-08-25T16:52:05.451Z,59.10
2022-08-25T16:55:07.862Z,59.10
2022-08-25T16:57:38.357Z,59.10
2022-08-25T17:00:14.798Z,59.20
2022-08-25T17:02:45.625Z,59.10
2022-08-25T17:05:16.121Z,59.10
2022-08-25T17:08:09.065Z,59.70
2022-08-25T17:10:43.586Z,59.10
2022-08-25T17:13:14.822Z,59.20
2022-08-25T17:15:47.343Z,59.30
2022-08-25T17:18:18.316Z,59.20
2022-08-25T17:20:51.268Z,59.40
2022-08-25T17:23:22.075Z,59.40
2022-08-25T17:25:53.745Z,59.50
2022-08-25T17:28:24.400Z,59.50
2022-08-25T17:30:56.072Z,59.50
2022-08-25T17:33:26.632Z,59.50
2022-08-25T17:35:59.990Z,59.50
2022-08-25T17:38:33.383Z,59.60
2022-08-25T17:41:08.494Z,59.60
2022-08-25T17:43:42.857Z,59.70
2022-08-25T17:46:15.281Z,59.60
2022-08-25T17:48:45.945Z,59.60
2022-08-25T17:51:16.442Z,59.70
2022-08-25T17:53:47.227Z,59.60
2022-08-25T17:56:20.875Z,59.70
2022-08-25T17:58:52.492Z,59.70
2022-08-25T18:01:29.240Z,59.70
2022-08-25T18:04:00.962Z,59.80
2022-08-25T18:06:32.693Z,59.80
2022-08-25T18:09:07.102Z,59.80
2022-08-25T18:11:38.277Z,59.90
2022-08-25T18:14:10.868Z,59.80
2022-08-25T18:16:42.487Z,59.90
2022-08-25T18:19:14.970Z,59.80
2022-08-25T18:21:45.490Z,59.90
2022-08-25T18:24:16.154Z,59.90
2022-08-25T18:26:46.707Z,59.80
2022-08-25T18:29:18.179Z,59.90
2022-08-25T18:31:48.785Z,59.80
2022-08-25T18:34:19.353Z,59.90
2022-08-25T18:36:50.064Z,59.80
2022-08-25T18:39:39.326Z,59.90
2022-08-25T18:42:10.107Z,59.90
2022-08-25T18:44:42.732Z,59.90
2022-08-25T18:47:16.963Z,59.90
2022-08-25T18:49:47.533Z,59.90
2022-08-25T18:52:17.784Z,59.90
2022-08-25T18:54:48.808Z,59.90
2022-08-25T18:57:23.653Z,59.90
2022-08-25T18:59:54.745Z,59.90
2022-08-25T19:02:25.009Z,59.90
2022-08-25T19:04:55.310Z,60.00
2022-08-25T19:07:25.469Z,59.90
2022-08-25T19:09:55.963Z,60.00
2022-08-25T19:12:26.173Z,59.90
2022-08-25T19:14:56.469Z,60.00
2022-08-25T19:17:29.802Z,60.00
2022-08-25T19:20:12.950Z,60.00
2022-08-25T19:22:43.509Z,60.00
2022-08-25T19:25:14.809Z,60.00
2022-08-25T19:27:47.175Z,60.00
2022-08-25T19:30:19.820Z,60.10
2022-08-25T19:32:50.715Z,60.00
2022-08-25T19:35:36.827Z,60.00
2022-08-25T19:38:19.991Z,60.10
2022-08-25T19:41:03.352Z,60.10
2022-08-25T19:43:41.146Z,60.20
2022-08-25T19:46:35.666Z,60.20
2022-08-25T19:49:13.987Z,60.20
2022-08-25T19:51:51.816Z,60.20
2022-08-25T19:54:29.326Z,60.20
2022-08-25T19:57:01.261Z,60.20
2022-08-25T19:59:42.588Z,60.10
2022-08-25T20:02:20.458Z,60.20
2022-08-25T20:04:54.755Z,60.20
2022-08-25T20:07:29.344Z,60.20
2022-08-25T20:10:01.418Z,60.20
2022-08-25T20:12:32.167Z,60.20
2022-08-25T20:15:02.345Z,60.10
2022-08-25T20:17:33.098Z,60.10
2022-08-25T20:20:06.893Z,60.10
2022-08-25T20:22:37.636Z,60.10
2022-08-25T20:25:21.327Z,60.10
2022-08-25T20:27:56.573Z,60.00
2022-08-25T20:30:32.446Z,60.10
2022-08-25T20:33:03.541Z,60.00
2022-08-25T20:35:33.825Z,60.00
2022-08-25T20:38:04.582Z,60.00
2022-08-25T20:40:35.036Z,60.00
2022-08-25T20:43:10.351Z,59.90
2022-08-25T20:45:42.401Z,59.90
2022-08-25T20:48:13.554Z,59.90
2022-08-25T20:50:43.813Z,59.90
2022-08-25T20:53:15.489Z,59.90
2022-08-25T20:55:45.799Z,59.90
2022-08-25T20:58:18.582Z,59.90
2022-08-25T21:00:49.238Z,59.90
2022-08-25T21:03:19.808Z,59.90
2022-08-25T21:05:54.066Z,59.90
2022-08-25T21:08:31.592Z,59.80
2022-08-25T21:11:01.914Z,59.90
2022-08-25T21:13:32.312Z,59.80
2022-08-25T21:16:05.578Z,59.90
2022-08-25T21:18:37.826Z,59.80
2022-08-25T21:21:13.993Z,59.90
2022-08-25T21:23:50.263Z,59.90
2022-08-25T21:26:27.364Z,59.90
2022-08-25T21:29:01.813Z,60.00
2022-08-25T21:31:33.317Z,59.90
2022-08-25T21:34:04.597Z,59.90
2022-08-25T21:36:35.754Z,59.90
2022-08-25T21:39:06.579Z,59.90
2022-08-25T21:41:39.296Z,59.90
2022-08-25T21:44:10.774Z,60.70
2022-08-25T21:46:41.459Z,59.90
2022-08-25T21:49:12.456Z,59.90
2022-08-25T21:51:46.595Z,60.00
2022-08-25T21:54:19.490Z,60.00
2022-08-25T21:57:01.193Z,59.90
2022-08-25T21:59:38.063Z,60.00
2022-08-25T22:02:11.677Z,60.00
2022-08-25T22:04:42.864Z,60.00
2022-08-25T22:07:13.959Z,60.10
2022-08-25T22:09:44.769Z,60.10
2022-08-25T22:12:15.045Z,60.20
2022-08-25T22:14:46.468Z,60.30
2022-08-25T22:17:21.125Z,60.50
2022-08-25T22:19:55.347Z,60.70
2022-08-25T22:22:25.862Z,60.80
2022-08-25T22:24:57.711Z,60.80
2022-08-25T22:27:30.170Z,61.00
2022-08-25T22:30:01.577Z,61.40
2022-08-25T22:32:32.211Z,61.70
2022-08-25T22:35:03.319Z,61.90
2022-08-25T22:37:34.073Z,62.00
2022-08-25T22:40:05.887Z,62.30
2022-08-25T22:42:36.194Z,62.40
2022-08-25T22:45:06.961Z,62.60
2022-08-25T22:47:37.442Z,62.70
2022-08-25T22:50:08.145Z,63.20
2022-08-25T22:52:38.333Z,63.30
2022-08-25T22:55:13.136Z,63.10
2022-08-25T22:57:44.254Z,63.10
2022-08-25T23:00:17.815Z,63.00
2022-08-25T23:02:49.585Z,63.00
2022-08-25T23:05:19.984Z,62.90
2022-08-25T23:07:52.221Z,62.90
2022-08-25T23:10:24.550Z,63.00
2022-08-25T23:12:54.805Z,63.00
2022-08-25T23:15:25.075Z,63.00
2022-08-25T23:17:55.319Z,63.00
2022-08-25T23:20:45.770Z,63.00
2022-08-25T23:23:16.074Z,63.00
2022-08-25T23:25:46.311Z,63.00
2022-08-25T23:28:16.737Z,63.00
2022-08-25T23:30:54.531Z,63.00
2022-08-25T23:33:30.307Z,63.00
2022-08-25T23:36:02.973Z,63.10
2022-08-25T23:38:33.316Z,63.10
2022-08-25T23:41:10.274Z,63.80
2022-08-25T23:43:40.994Z,63.10
2022-08-25T23:46:11.892Z,63.10
2022-08-25T23:48:42.392Z,63.00
2022-08-25T23:51:13.563Z,63.10
2022-08-25T23:53:43.746Z,63.10
2022-08-25T23:56:14.760Z,63.00
2022-08-25T23:58:45.020Z,63.00
